ENHD/HAU METAR and TAF weather

Enter ICAO airport designator
Station Type Date Time Source
ENHD METAR 2021/03/08 14:50 UTC NOAA

ENHD 081450Z 20012KT 9999 FEW030 05/M03 Q1022


Station Type Date Time Source
ENHD Decoded METAR 2021/03/08 14:50 UTC NOAA

Haugesund / Karmoy, Norway (ENHD) 59-21N 005-13E 24M
Mar 08, 2021 - 09:50 AM EST / 2021.03.08 1450 UTC
Wind: from the SSW (200 degrees) at 14 MPH (12 KT):0
Visibility: greater than 7 mile(s):0
Sky conditions: mostly clear
Temperature: 41 F (5 C)
Dew Point: 26 F (-3 C)
Relative Humidity: 56%
Pressure (altimeter): 30.18 in. Hg (1022 hPa)
ob: ENHD 081450Z 20012KT 9999 FEW030 05/M03 Q1022
cycle: 15

Station Type Date Time Source
ENHD TAF UTC NOAA

Error!

Example: see airport list